Terminal Aerodrome Forecast
Issued by NWS

Home | Current Version | Previous Version | Graphics & Text | Print | Product List | Glossary On
Versions: 1 2 3 4 5 6 7 8 9 10 11 12 13 14 15 16 17
652
FTUS43 KIWX 251120
TAFSBN
TAF
KSBN 251120Z 2512/2612 15005KT 5SM SHRA BR OVC040
     FM251500 12008KT 2SM SHRA BR OVC015
     FM260600 11009KT 1 1/2SM SHRA BR OVC008=

USA.gov is the U.S. government's official web portal to all federal, state and local government web resources and services.